Terminal Aerodrome Forecast
Issued by NWS

Home | Current Version | Previous Version | Text Only | Print | Product List | Glossary On
Versions: 1 2 3 4 5 6 7 8 9 10 11 12 13 14 15 16 17 18 19
868
FTUS45 KVEF 201237 AAA
TAFHND
TAF AMD
KHND 201237Z 2013/2112 19006KT P6SM VCSH BKN120 BKN200
     FM202200 20009KT P6SM SCT120 SCT250
     FM210600 22012KT P6SM SCT120 SCT250=

USA.gov is the U.S. government's official web portal to all federal, state and local government web resources and services.